Time,TemperatureF,DewpointF,PressureIn,WindDirection,WindDirectionDegrees,WindSpeedMPH,WindSpeedGustMPH,Humidity,HourlyPrecipIn,Conditions,Clouds,dailyrainin,SoftwareType,DateUTC
2013-02-24 00:00:00,44.1,43.3,29.50,SSW,205,1.0,3.0,97,0.00,RA,,0.00,WeatherDisplay:10.37,2013-02-24 05:00:00,
2013-02-24 00:02:00,44.1,43.3,29.50,SW,225,2.3,3.1,97,0.00,RA,,0.00,WeatherDisplay:10.37,2013-02-24 05:02:00,
2013-02-24 00:07:00,44.2,43.4,29.49,WSW,248,5.8,5.8,97,0.00,RA,,0.00,WeatherDisplay:10.37,2013-02-24 05:07:00,
2013-02-24 00:12:00,44.2,43.4,29.50,East,90,5.8,5.8,97,0.00,CLR,,0.00,WeatherDisplay:10.37,2013-02-24 05:12:00,
2013-02-24 00:17:00,44.2,43.4,29.50,SW,225,2.3,0.0,97,0.00,CLR,,0.00,WeatherDisplay:10.37,2013-02-24 05:17:00,
2013-02-24 00:22:00,44.2,43.4,29.50,West,270,1.2,1.6,97,0.00,CLR,,0.00,WeatherDisplay:10.37,2013-02-24 05:22:00,
2013-02-24 00:27:00,44.2,43.4,29.50,East,90,5.8,5.8,97,0.00,CLR,,0.00,WeatherDisplay:10.37,2013-02-24 05:27:00,
2013-02-24 00:32:00,44.2,43.4,29.50,SE,135,1.2,1.2,97,0.00,CLR,,0.00,WeatherDisplay:10.37,2013-02-24 05:32:00,
2013-02-24 00:37:00,44.2,43.4,29.49,East,90,1.2,0.0,97,0.00,CLR,,0.00,WeatherDisplay:10.37,2013-02-24 05:37:00,
2013-02-24 00:42:00,44.2,43.4,29.50,SE,135,1.2,0.0,97,0.00,CLR,,0.00,WeatherDisplay:10.37,2013-02-24 05:42:00,
2013-02-24 00:47:00,44.2,43.4,29.51,NE,45,5.8,5.8,97,0.00,CLR,,0.00,WeatherDisplay:10.37,2013-02-24 05:47:00,
2013-02-24 00:52:00,44.2,43.4,29.51,North,0,3.5,3.5,97,0.00,CLR,,0.00,WeatherDisplay:10.37,2013-02-24 05:52:00,
2013-02-24 00:57:00,44.2,43.4,29.51,East,90,2.3,2.3,97,0.00,CLR,,0.00,WeatherDisplay:10.37,2013-02-24 05:57:00,
2013-02-24 01:02:00,44.2,43.4,29.51,SE,135,1.6,1.6,97,0.00,CLR,,0.00,WeatherDisplay:10.37,2013-02-24 06:02:00,
2013-02-24 01:07:00,44.2,43.4,29.51,SW,225,1.2,0.0,97,0.00,CLR,,0.00,WeatherDisplay:10.37,2013-02-24 06:07:00,
2013-02-24 01:12:00,44.2,43.4,29.51,East,90,3.5,3.5,97,0.00,CLR,,0.00,WeatherDisplay:10.37,2013-02-24 06:12:00,
2013-02-24 01:17:00,44.2,43.4,29.51,NE,45,3.5,3.5,97,0.00,CLR,,0.00,WeatherDisplay:10.37,2013-02-24 06:17:00,
2013-02-24 01:22:00,44.2,43.4,29.51,NE,45,3.8,3.8,97,0.00,CLR,,0.00,WeatherDisplay:10.37,2013-02-24 06:22:00,
2013-02-24 01:27:00,44.2,43.4,29.51,North,0,3.5,3.5,97,0.00,CLR,,0.00,WeatherDisplay:10.37,2013-02-24 06:27:00,
2013-02-24 01:32:00,44.2,43.4,29.50,East,90,3.5,3.5,97,0.00,CLR,,0.00,WeatherDisplay:10.37,2013-02-24 06:32:00,
2013-02-24 01:37:00,44.2,43.4,29.50,South,180,1.2,1.6,97,0.00,CLR,,0.00,WeatherDisplay:10.37,2013-02-24 06:37:00,
2013-02-24 01:42:00,44.2,43.4,29.50,West,270,1.2,0.0,97,0.00,CLR,,0.00,WeatherDisplay:10.37,2013-02-24 06:42:00,
2013-02-24 01:47:00,44.2,43.4,29.49,South,180,1.2,1.6,97,0.00,CLR,,0.00,WeatherDisplay:10.37,2013-02-24 06:47:00,
2013-02-24 01:52:00,44.2,43.4,29.49,SW,225,1.2,0.0,97,0.00,CLR,,0.00,WeatherDisplay:10.37,2013-02-24 06:52:00,
2013-02-24 01:57:00,44.2,43.4,29.49,NE,45,1.2,1.2,97,0.00,CLR,,0.00,WeatherDisplay:10.37,2013-02-24 06:57:00,
2013-02-24 02:02:00,44.2,43.4,29.49,North,0,3.5,3.5,97,0.00,CLR,,0.00,WeatherDisplay:10.37,2013-02-24 07:02:00,
2013-02-24 02:07:00,44.2,43.4,29.50,NE,45,4.6,4.6,97,0.00,CLR,,0.00,WeatherDisplay:10.37,2013-02-24 07:07:00,
2013-02-24 02:12:00,44.2,43.4,29.49,NE,45,4.6,4.6,97,0.00,CLR,,0.00,WeatherDisplay:10.37,2013-02-24 07:12:00,
2013-02-24 02:17:00,44.2,43.4,29.49,NE,45,3.5,3.5,97,0.00,CLR,,0.00,WeatherDisplay:10.37,2013-02-24 07:17:00,
2013-02-24 02:22:00,44.2,43.4,29.49,NE,45,4.6,4.6,97,0.00,CLR,,0.00,WeatherDisplay:10.37,2013-02-24 07:22:00,
2013-02-24 02:27:00,44.2,43.4,29.48,ENE,68,5.8,5.8,97,0.00,CLR,,0.00,WeatherDisplay:10.37,2013-02-24 07:27:00,
2013-02-24 02:32:00,44.2,43.4,29.47,East,90,3.5,3.5,97,0.00,CLR,,0.00,WeatherDisplay:10.37,2013-02-24 07:32:00,
2013-02-24 02:37:00,44.2,43.4,29.47,NE,45,4.6,4.6,97,0.00,CLR,,0.00,WeatherDisplay:10.37,2013-02-24 07:37:00,
2013-02-24 02:42:00,44.1,43.3,29.47,NE,45,3.5,3.5,97,0.00,CLR,,0.00,WeatherDisplay:10.37,2013-02-24 07:42:00,
2013-02-24 02:47:00,44.1,43.3,29.46,NE,45,3.5,3.5,97,0.00,CLR,,0.00,WeatherDisplay:10.37,2013-02-24 07:47:00,
2013-02-24 02:53:00,44.1,43.3,29.45,NE,45,2.3,2.3,97,0.00,CLR,,0.00,WeatherDisplay:10.37,2013-02-24 07:53:00,
2013-02-24 02:58:00,44.1,43.5,29.46,East,90,1.2,0.0,98,0.00,CLR,,0.00,WeatherDisplay:10.37,2013-02-24 07:58:00,
2013-02-24 03:03:00,44.1,43.5,29.46,East,90,0.0,0.0,98,0.00,CLR,,0.00,WeatherDisplay:10.37,2013-02-24 08:03:00,
2013-02-24 03:08:00,44.1,43.5,29.47,SE,135,1.2,1.2,98,0.00,CLR,,0.00,WeatherDisplay:10.37,2013-02-24 08:08:00,
2013-02-24 03:13:00,44.1,43.5,29.46,NE,45,2.3,2.3,98,0.00,CLR,,0.00,WeatherDisplay:10.37,2013-02-24 08:13:00,
2013-02-24 03:18:00,44.1,43.5,29.45,South,180,2.3,0.0,98,0.00,CLR,,0.00,WeatherDisplay:10.37,2013-02-24 08:18:00,
2013-02-24 03:23:00,44.1,43.5,29.45,NE,45,2.3,4.5,98,0.00,CLR,,0.00,WeatherDisplay:10.37,2013-02-24 08:23:00,
2013-02-24 03:28:00,44.1,43.5,29.46,North,0,5.8,5.8,98,0.00,CLR,,0.00,WeatherDisplay:10.37,2013-02-24 08:28:00,
2013-02-24 03:33:00,44.1,43.5,29.46,ENE,68,4.6,4.6,98,0.00,CLR,,0.00,WeatherDisplay:10.37,2013-02-24 08:33:00,
2013-02-24 03:38:00,44.1,43.5,29.45,NE,45,5.8,5.8,98,0.00,CLR,,0.00,WeatherDisplay:10.37,2013-02-24 08:38:00,
2013-02-24 03:43:00,44.1,43.5,29.46,North,0,5.8,5.8,98,0.00,CLR,,0.00,WeatherDisplay:10.37,2013-02-24 08:43:00,
2013-02-24 03:48:00,44.2,43.7,29.47,NE,45,4.6,4.6,98,0.00,CLR,,0.00,WeatherDisplay:10.37,2013-02-24 08:48:00,
2013-02-24 03:53:00,44.2,43.7,29.47,NE,45,9.2,9.2,98,0.01,RA,,0.01,WeatherDisplay:10.37,2013-02-24 08:53:00,
2013-02-24 03:58:00,44.2,43.7,29.46,South,180,3.5,3.5,98,0.01,RA,,0.01,WeatherDisplay:10.37,2013-02-24 08:58:00,
2013-02-24 04:03:00,44.2,43.7,29.46,South,180,3.5,0.0,98,0.02,RA,,0.02,WeatherDisplay:10.37,2013-02-24 09:03:00,
2013-02-24 04:08:00,44.2,43.7,29.47,NE,45,5.8,5.8,98,0.02,RA,,0.02,WeatherDisplay:10.37,2013-02-24 09:08:00,
2013-02-24 04:13:00,44.2,43.7,29.47,NE,45,4.6,4.6,98,0.02,,,0.02,WeatherDisplay:10.37,2013-02-24 09:13:00,
2013-02-24 04:18:00,44.2,43.7,29.47,NE,45,5.8,5.8,98,0.04,RA,,0.04,WeatherDisplay:10.37,2013-02-24 09:18:00,
2013-02-24 04:23:00,44.2,43.7,29.47,NE,45,5.8,5.8,98,0.04,RA,,0.04,WeatherDisplay:10.37,2013-02-24 09:23:00,
2013-02-24 04:28:00,44.2,43.7,29.47,West,270,3.5,3.5,98,0.04,,,0.04,WeatherDisplay:10.37,2013-02-24 09:28:00,
2013-02-24 04:33:00,44.2,43.7,29.48,East,90,4.6,4.6,98,0.04,CLR,,0.04,WeatherDisplay:10.37,2013-02-24 09:33:00,
2013-02-24 04:38:00,44.6,43.8,29.48,North,0,4.6,4.6,97,0.04,CLR,,0.04,WeatherDisplay:10.37,2013-02-24 09:38:00,
2013-02-24 04:43:00,44.6,43.8,29.47,East,90,5.8,5.8,97,0.04,CLR,,0.04,WeatherDisplay:10.37,2013-02-24 09:43:00,
2013-02-24 04:48:00,44.6,43.8,29.48,NE,45,4.6,4.6,97,0.04,CLR,,0.04,WeatherDisplay:10.37,2013-02-24 09:48:00,
2013-02-24 04:53:00,44.6,43.8,29.47,SE,135,3.5,3.5,97,0.02,CLR,,0.04,WeatherDisplay:10.37,2013-02-24 09:53:00,
2013-02-24 04:58:00,44.6,43.8,29.47,NNE,22,3.5,3.5,97,0.02,CLR,,0.04,WeatherDisplay:10.37,2013-02-24 09:58:00,
2013-02-24 05:03:00,44.6,43.8,29.47,East,90,1.2,0.0,97,0.01,CLR,,0.04,WeatherDisplay:10.37,2013-02-24 10:03:00,
2013-02-24 05:08:00,44.8,44.0,29.47,NE,45,1.2,0.0,97,0.01,CLR,,0.04,WeatherDisplay:10.37,2013-02-24 10:08:00,
2013-02-24 05:13:00,44.8,44.0,29.47,SW,225,0.0,0.0,97,0.01,CLR,,0.04,WeatherDisplay:10.37,2013-02-24 10:13:00,
2013-02-24 05:18:00,44.8,44.0,29.47,South,180,1.2,0.0,97,0.00,CLR,,0.04,WeatherDisplay:10.37,2013-02-24 10:18:00,
2013-02-24 05:23:00,44.8,44.0,29.48,ENE,68,2.2,2.2,97,0.00,CLR,,0.04,WeatherDisplay:10.37,2013-02-24 10:23:00,
2013-02-24 05:28:00,44.8,44.0,29.49,NE,45,1.2,1.2,97,0.00,CLR,,0.04,WeatherDisplay:10.37,2013-02-24 10:28:00,
2013-02-24 05:33:00,45.0,44.2,29.49,NE,45,3.5,3.5,97,0.00,CLR,,0.04,WeatherDisplay:10.37,2013-02-24 10:33:00,
2013-02-24 05:38:00,45.0,44.2,29.49,SE,135,3.5,0.0,97,0.00,CLR,,0.04,WeatherDisplay:10.37,2013-02-24 10:38:00,
2013-02-24 05:43:00,44.8,44.0,29.49,NE,45,1.2,1.2,97,0.00,CLR,,0.04,WeatherDisplay:10.37,2013-02-24 10:43:00,
2013-02-24 05:48:00,44.8,44.0,29.49,SE,135,0.0,0.0,97,0.00,CLR,,0.04,WeatherDisplay:10.37,2013-02-24 10:48:00,
2013-02-24 05:53:00,44.8,44.0,29.50,NE,45,1.2,1.2,97,0.00,CLR,,0.04,WeatherDisplay:10.37,2013-02-24 10:53:00,
2013-02-24 05:58:00,45.0,44.2,29.50,NE,45,0.0,0.0,97,0.00,CLR,,0.04,WeatherDisplay:10.37,2013-02-24 10:58:00,
2013-02-24 06:03:00,44.8,44.0,29.50,South,180,0.0,0.0,97,0.00,CLR,,0.04,WeatherDisplay:10.37,2013-02-24 11:03:00,
2013-02-24 06:08:00,44.8,44.0,29.50,South,180,1.2,0.0,97,0.00,CLR,,0.04,WeatherDisplay:10.37,2013-02-24 11:08:00,
2013-02-24 06:13:00,44.8,44.0,29.50,East,90,1.2,0.0,97,0.00,CLR,,0.04,WeatherDisplay:10.37,2013-02-24 11:13:00,
2013-02-24 06:18:00,44.8,44.0,29.51,WSW,248,3.5,3.5,97,0.00,CLR,,0.04,WeatherDisplay:10.37,2013-02-24 11:18:00,
2013-02-24 06:23:00,44.8,44.0,29.52,East,90,3.5,3.5,97,0.00,CLR,,0.04,WeatherDisplay:10.37,2013-02-24 11:23:00,
2013-02-24 06:28:00,44.8,44.0,29.51,East,90,5.8,5.8,97,0.00,CLR,,0.04,WeatherDisplay:10.37,2013-02-24 11:28:00,
2013-02-24 06:33:00,44.8,44.0,29.52,NE,45,3.5,3.5,97,0.00,CLR,,0.04,WeatherDisplay:10.37,2013-02-24 11:33:00,
2013-02-24 06:38:00,45.0,44.2,29.52,NE,45,5.8,5.8,97,0.00,CLR,,0.04,WeatherDisplay:10.37,2013-02-24 11:38:00,
2013-02-24 06:43:00,45.0,44.2,29.52,NE,45,5.8,5.8,97,0.00,CLR,,0.04,WeatherDisplay:10.37,2013-02-24 11:43:00,
2013-02-24 06:48:00,45.0,44.2,29.52,NE,45,3.5,3.5,97,0.00,CLR,,0.04,WeatherDisplay:10.37,2013-02-24 11:48:00,
2013-02-24 06:53:00,45.0,44.2,29.52,NE,45,3.5,3.5,97,0.00,CLR,,0.04,WeatherDisplay:10.37,2013-02-24 11:53:00,
2013-02-24 06:58:00,45.0,44.2,29.52,NE,45,3.8,3.8,97,0.00,CLR,,0.04,WeatherDisplay:10.37,2013-02-24 11:58:00,
2013-02-24 07:03:00,45.0,44.2,29.52,East,90,3.5,3.5,97,0.00,CLR,,0.04,WeatherDisplay:10.37,2013-02-24 12:03:00,
2013-02-24 07:08:00,45.0,44.2,29.52,NE,45,3.5,3.5,97,0.00,CLR,,0.04,WeatherDisplay:10.37,2013-02-24 12:08:00,
2013-02-24 07:13:00,45.0,44.2,29.52,East,90,1.2,1.2,97,0.00,CLR,,0.04,WeatherDisplay:10.37,2013-02-24 12:13:00,
2013-02-24 07:18:00,45.1,44.3,29.53,NE,45,2.3,2.3,97,0.00,CLR,,0.04,WeatherDisplay:10.37,2013-02-24 12:18:00,
2013-02-24 07:23:00,45.1,44.3,29.53,NE,45,3.5,3.5,97,0.00,CLR,,0.04,WeatherDisplay:10.37,2013-02-24 12:23:00,
2013-02-24 07:28:00,45.1,44.3,29.54,North,0,3.5,3.5,97,0.00,CLR,,0.04,WeatherDisplay:10.37,2013-02-24 12:28:00,
2013-02-24 07:33:00,45.3,44.5,29.53,NE,45,5.8,5.8,97,0.00,CLR,,0.04,WeatherDisplay:10.37,2013-02-24 12:33:00,
2013-02-24 07:38:00,45.3,44.5,29.53,NE,45,2.3,2.3,97,0.00,CLR,,0.04,WeatherDisplay:10.37,2013-02-24 12:38:00,
2013-02-24 07:43:00,45.3,44.5,29.53,North,0,3.5,3.5,97,0.00,CLR,,0.04,WeatherDisplay:10.37,2013-02-24 12:43:00,
2013-02-24 07:48:00,45.3,44.5,29.53,NE,45,5.8,5.8,97,0.00,CLR,,0.04,WeatherDisplay:10.37,2013-02-24 12:48:00,
2013-02-24 07:53:00,45.5,44.7,29.54,East,90,4.6,4.6,97,0.00,CLR,,0.04,WeatherDisplay:10.37,2013-02-24 12:53:00,
2013-02-24 07:58:00,45.7,44.9,29.55,NE,45,3.5,3.5,97,0.00,CLR,,0.04,WeatherDisplay:10.37,2013-02-24 12:58:00,
2013-02-24 08:03:00,45.9,45.1,29.55,South,180,3.5,3.5,97,0.00,CLR,,0.04,WeatherDisplay:10.37,2013-02-24 13:03:00,
2013-02-24 08:08:00,45.9,45.1,29.55,East,90,3.5,3.5,97,0.00,CLR,,0.04,WeatherDisplay:10.37,2013-02-24 13:08:00,
2013-02-24 08:13:00,46.4,45.3,29.55,NE,45,3.8,3.8,96,0.00,CLR,,0.04,WeatherDisplay:10.37,2013-02-24 13:13:00,
2013-02-24 08:18:00,46.4,45.3,29.56,NE,45,4.6,4.6,96,0.00,CLR,,0.04,WeatherDisplay:10.37,2013-02-24 13:18:00,
2013-02-24 08:23:00,46.8,45.7,29.57,NE,45,3.5,5.4,96,0.00,CLR,,0.04,WeatherDisplay:10.37,2013-02-24 13:23:00,
2013-02-24 08:28:00,46.6,45.2,29.57,NE,45,4.6,4.6,95,0.00,CLR,,0.04,WeatherDisplay:10.37,2013-02-24 13:28:00,
2013-02-24 08:33:00,47.1,45.8,29.57,NE,45,5.8,5.8,95,0.00,CLR,,0.04,WeatherDisplay:10.37,2013-02-24 13:33:00,
2013-02-24 08:38:00,47.5,45.8,29.57,NE,45,5.8,5.8,94,0.00,CLR,,0.04,WeatherDisplay:10.37,2013-02-24 13:38:00,
2013-02-24 08:43:00,48.7,46.2,29.58,NE,45,5.8,5.8,91,0.00,CLR,,0.04,WeatherDisplay:10.37,2013-02-24 13:43:00,
2013-02-24 08:48:00,49.5,46.4,29.58,NE,45,6.9,6.9,89,0.00,CLR,,0.04,WeatherDisplay:10.37,2013-02-24 13:48:00,
2013-02-24 08:53:00,51.4,47.4,29.58,East,90,3.5,3.5,86,0.00,CLR,,0.04,WeatherDisplay:10.37,2013-02-24 13:53:00,
2013-02-24 08:58:00,51.6,46.3,29.58,NNE,22,5.8,5.8,82,0.00,CLR,,0.04,WeatherDisplay:10.37,2013-02-24 13:58:00,
2013-02-24 09:03:00,52.0,45.7,29.59,ENE,68,5.8,5.8,79,0.00,CLR,,0.04,WeatherDisplay:10.37,2013-02-24 14:03:00,
2013-02-24 09:08:00,52.3,45.7,29.59,East,90,10.4,10.4,78,0.00,CLR,,0.04,WeatherDisplay:10.37,2013-02-24 14:08:00,
2013-02-24 09:13:00,53.2,46.2,29.59,NE,45,5.8,5.8,77,0.00,CLR,,0.04,WeatherDisplay:10.37,2013-02-24 14:13:00,
2013-02-24 09:18:00,53.6,46.2,29.59,NE,45,4.6,4.6,76,0.00,CLR,,0.04,WeatherDisplay:10.37,2013-02-24 14:18:00,
2013-02-24 09:23:00,54.0,46.2,29.59,North,0,5.8,5.8,75,0.00,CLR,,0.04,WeatherDisplay:10.37,2013-02-24 14:23:00,
2013-02-24 09:28:00,54.7,45.8,29.59,NE,45,9.2,9.2,72,0.00,CLR,,0.04,WeatherDisplay:10.37,2013-02-24 14:28:00,
2013-02-24 09:33:00,54.7,45.5,29.58,ENE,68,8.1,8.1,71,0.00,CLR,,0.04,WeatherDisplay:10.37,2013-02-24 14:33:00,
2013-02-24 09:38:00,55.2,46.0,29.59,East,90,8.3,8.3,71,0.00,CLR,,0.04,WeatherDisplay:10.37,2013-02-24 14:38:00,
2013-02-24 09:43:00,55.0,45.4,29.59,NE,45,10.4,10.4,70,0.00,CLR,,0.04,WeatherDisplay:10.37,2013-02-24 14:43:00,
2013-02-24 09:48:00,55.4,44.6,29.59,NE,45,6.9,6.9,67,0.00,CLR,,0.04,WeatherDisplay:10.37,2013-02-24 14:48:00,
2013-02-24 09:53:00,56.1,45.3,29.59,NE,45,10.4,10.4,67,0.00,CLR,,0.04,WeatherDisplay:10.37,2013-02-24 14:53:00,
2013-02-24 09:58:00,56.1,45.3,29.59,East,90,4.6,6.0,67,0.00,CLR,,0.04,WeatherDisplay:10.37,2013-02-24 14:58:00,
2013-02-24 10:03:00,56.1,44.5,29.59,NE,45,8.1,8.1,65,0.00,CLR,,0.04,WeatherDisplay:10.37,2013-02-24 15:03:00,
2013-02-24 10:08:00,56.8,45.6,29.59,East,90,5.8,5.8,66,0.00,CLR,,0.04,WeatherDisplay:10.37,2013-02-24 15:08:00,
2013-02-24 10:13:00,58.1,45.6,29.59,NE,45,5.8,5.8,63,0.00,CLR,,0.04,WeatherDisplay:10.37,2013-02-24 15:13:00,
2013-02-24 10:18:00,58.5,45.1,29.59,NE,45,8.1,8.1,61,0.00,CLR,,0.04,WeatherDisplay:10.37,2013-02-24 15:18:00,
2013-02-24 10:23:00,58.1,44.3,29.59,NE,45,10.4,10.4,60,0.00,CLR,,0.04,WeatherDisplay:10.37,2013-02-24 15:23:00,
2013-02-24 10:28:00,57.0,43.3,29.59,North,4,11.5,11.5,60,0.00,CLR,,0.04,WeatherDisplay:10.37,2013-02-24 15:28:00,
2013-02-24 10:33:00,57.7,43.9,29.59,NE,45,8.1,8.1,60,0.00,CLR,,0.04,WeatherDisplay:10.37,2013-02-24 15:33:00,
2013-02-24 10:38:00,58.5,43.3,29.59,NE,45,10.4,10.4,57,0.00,CLR,,0.04,WeatherDisplay:10.37,2013-02-24 15:38:00,
2013-02-24 10:43:00,58.1,42.9,29.59,NE,45,10.4,10.4,57,0.00,CLR,,0.04,WeatherDisplay:10.37,2013-02-24 15:43:00,
2013-02-24 10:48:00,58.3,43.1,29.59,East,90,10.4,10.4,57,0.00,CLR,,0.04,WeatherDisplay:10.37,2013-02-24 15:48:00,
2013-02-24 10:53:00,58.6,42.5,29.59,East,90,9.2,9.2,55,0.00,CLR,,0.04,WeatherDisplay:10.37,2013-02-24 15:53:00,
2013-02-24 10:58:00,59.5,43.3,29.59,NE,45,8.1,8.1,55,0.00,CLR,,0.04,WeatherDisplay:10.37,2013-02-24 15:58:00,
2013-02-24 11:03:00,60.8,43.6,29.59,East,90,5.8,5.8,53,0.00,CLR,,0.04,WeatherDisplay:10.37,2013-02-24 16:03:00,
2013-02-24 11:08:00,60.6,42.4,29.59,East,90,10.4,10.4,51,0.00,CLR,,0.04,WeatherDisplay:10.37,2013-02-24 16:08:00,
2013-02-24 11:13:00,59.9,41.2,29.59,NE,45,11.5,11.5,50,0.00,CLR,,0.04,WeatherDisplay:10.37,2013-02-24 16:13:00,
2013-02-24 11:18:00,60.6,43.4,29.59,NNE,22,6.9,6.9,53,0.00,CLR,,0.04,WeatherDisplay:10.37,2013-02-24 16:18:00,
2013-02-24 11:23:00,62.1,44.2,29.59,North,0,8.1,8.1,52,0.00,CLR,,0.04,WeatherDisplay:10.37,2013-02-24 16:23:00,
2013-02-24 11:28:00,62.1,41.6,29.59,East,90,11.5,11.5,47,0.00,CLR,,0.04,WeatherDisplay:10.37,2013-02-24 16:28:00,
2013-02-24 11:33:00,61.0,40.0,29.59,SE,135,5.8,5.8,46,0.00,CLR,,0.04,WeatherDisplay:10.37,2013-02-24 16:33:00,
2013-02-24 11:38:00,61.2,40.2,29.59,WNW,292,9.2,9.2,46,0.00,CLR,,0.04,WeatherDisplay:10.37,2013-02-24 16:38:00,
2013-02-24 11:43:00,61.0,38.9,29.59,NE,45,11.5,11.5,44,0.00,CLR,,0.04,WeatherDisplay:10.37,2013-02-24 16:43:00,
2013-02-24 11:48:00,60.6,40.8,29.59,NE,45,17.3,17.3,48,0.00,CLR,,0.04,WeatherDisplay:10.37,2013-02-24 16:48:00,
2013-02-24 11:53:00,59.7,39.4,29.59,NW,315,12.7,12.7,47,0.00,CLR,,0.04,WeatherDisplay:10.37,2013-02-24 16:53:00,
2013-02-24 11:58:00,60.1,40.3,29.58,NE,45,12.7,12.7,48,0.00,CLR,,0.04,WeatherDisplay:10.37,2013-02-24 16:58:00,
2013-02-24 12:03:00,60.6,40.8,29.58,East,90,10.4,10.4,48,0.00,CLR,,0.04,WeatherDisplay:10.37,2013-02-24 17:03:00,
2013-02-24 12:08:00,60.6,40.8,29.58,NE,45,11.5,11.5,48,0.00,CLR,,0.04,WeatherDisplay:10.37,2013-02-24 17:08:00,
2013-02-24 12:13:00,61.0,40.0,29.58,NE,45,8.1,8.1,46,0.00,CLR,,0.04,WeatherDisplay:10.37,2013-02-24 17:13:00,
2013-02-24 12:18:00,61.3,40.9,29.58,NE,45,6.0,6.0,47,0.00,CLR,,0.04,WeatherDisplay:10.37,2013-02-24 17:18:00,
2013-02-24 12:23:00,61.3,39.2,29.58,NE,45,10.4,10.4,44,0.00,CLR,,0.04,WeatherDisplay:10.37,2013-02-24 17:23:00,
2013-02-24 12:28:00,61.3,38.0,29.58,NNE,22,12.7,12.7,42,0.00,CLR,,0.04,WeatherDisplay:10.37,2013-02-24 17:28:00,
2013-02-24 12:33:00,61.3,38.0,29.58,NE,45,15.0,15.0,42,0.00,CLR,,0.04,WeatherDisplay:10.37,2013-02-24 17:33:00,
2013-02-24 12:38:00,60.4,37.2,29.58,East,90,13.8,13.8,42,0.00,CLR,,0.04,WeatherDisplay:10.37,2013-02-24 17:38:00,
2013-02-24 12:43:00,61.0,38.3,29.57,East,90,8.1,8.1,43,0.00,CLR,,0.04,WeatherDisplay:10.37,2013-02-24 17:43:00,
2013-02-24 12:48:00,61.2,37.9,29.58,NNE,22,10.4,10.4,42,0.00,CLR,,0.04,WeatherDisplay:10.37,2013-02-24 17:48:00,
2013-02-24 12:53:00,61.5,38.2,29.57,East,90,9.2,9.2,42,0.00,CLR,,0.04,WeatherDisplay:10.37,2013-02-24 17:53:00,
2013-02-24 12:58:00,62.6,39.2,29.57,North,0,5.8,5.8,42,0.00,CLR,,0.04,WeatherDisplay:10.37,2013-02-24 17:58:00,
2013-02-24 13:03:00,63.7,40.8,29.57,NNE,22,8.1,8.1,43,0.00,CLR,,0.04,WeatherDisplay:10.37,2013-02-24 18:03:00,
2013-02-24 13:08:00,62.8,38.7,29.57,East,90,9.2,9.2,41,0.00,CLR,,0.04,WeatherDisplay:10.37,2013-02-24 18:08:00,
2013-02-24 13:13:00,63.5,40.0,29.57,ENE,68,10.4,10.4,42,0.00,CLR,,0.04,WeatherDisplay:10.37,2013-02-24 18:13:00,
2013-02-24 13:18:00,63.3,37.9,29.57,NNE,22,9.2,9.2,39,0.00,CLR,,0.04,WeatherDisplay:10.37,2013-02-24 18:18:00,
2013-02-24 13:23:00,63.5,40.0,29.56,NE,45,10.4,10.4,42,0.00,CLR,,0.04,WeatherDisplay:10.37,2013-02-24 18:23:00,
2013-02-24 13:28:00,63.5,39.4,29.56,South,180,10.4,10.4,41,0.00,CLR,,0.04,WeatherDisplay:10.37,2013-02-24 18:28:00,
2013-02-24 13:33:00,64.9,40.7,29.56,North,0,5.8,5.8,41,0.00,CLR,,0.04,WeatherDisplay:10.37,2013-02-24 18:33:00,
2013-02-24 13:38:00,63.5,36.0,29.55,East,90,12.7,12.7,36,0.00,CLR,,0.04,WeatherDisplay:10.37,2013-02-24 18:38:00,
2013-02-24 13:43:00,62.2,38.8,29.55,NE,45,6.9,6.9,42,0.00,CLR,,0.04,WeatherDisplay:10.37,2013-02-24 18:43:00,
2013-02-24 13:48:00,62.2,39.5,29.55,South,180,8.1,8.1,43,0.00,CLR,,0.04,WeatherDisplay:10.37,2013-02-24 18:48:00,
2013-02-24 13:53:00,62.2,38.8,29.55,East,90,2.3,2.3,42,0.00,CLR,,0.04,WeatherDisplay:10.37,2013-02-24 18:53:00,
2013-02-24 13:58:00,62.1,36.8,29.55,NE,45,6.9,6.9,39,0.00,CLR,,0.04,WeatherDisplay:10.37,2013-02-24 18:58:00,
2013-02-24 14:03:00,62.2,37.0,29.55,ENE,68,4.6,6.9,39,0.00,CLR,,0.04,WeatherDisplay:10.37,2013-02-24 19:03:00,
2013-02-24 14:08:00,61.9,36.0,29.55,ENE,68,13.0,13.0,38,0.00,CLR,,0.04,WeatherDisplay:10.37,2013-02-24 19:08:00,
2013-02-24 14:13:00,61.7,33.7,29.55,NE,45,12.7,12.7,35,0.00,CLR,,0.04,WeatherDisplay:10.37,2013-02-24 19:13:00,
2013-02-24 14:18:00,61.5,35.0,29.55,ENE,68,9.2,9.2,37,0.00,CLR,,0.04,WeatherDisplay:10.37,2013-02-24 19:18:00,
2013-02-24 14:23:00,61.9,37.3,29.55,NE,45,6.9,6.9,40,0.00,CLR,,0.04,WeatherDisplay:10.37,2013-02-24 19:23:00,
2013-02-24 14:28:00,62.2,38.2,29.55,ENE,68,6.9,6.9,41,0.00,CLR,,0.04,WeatherDisplay:10.37,2013-02-24 19:28:00,
2013-02-24 14:33:00,62.8,37.4,29.55,WSW,248,10.4,10.4,39,0.00,CLR,,0.04,WeatherDisplay:10.37,2013-02-24 19:33:00,
2013-02-24 14:38:00,62.4,35.8,29.55,NE,45,8.1,8.1,37,0.00,CLR,,0.04,WeatherDisplay:10.37,2013-02-24 19:38:00,
2013-02-24 14:43:00,62.2,36.3,29.55,NE,45,6.9,6.9,38,0.00,CLR,,0.04,WeatherDisplay:10.37,2013-02-24 19:43:00,
2013-02-24 14:48:00,62.4,35.1,29.55,South,180,10.4,10.4,36,0.00,CLR,,0.04,WeatherDisplay:10.37,2013-02-24 19:48:00,
2013-02-24 14:53:00,62.6,35.3,29.55,ENE,68,6.9,6.9,36,0.00,CLR,,0.04,WeatherDisplay:10.37,2013-02-24 19:53:00,
2013-02-24 14:58:00,62.8,35.4,29.55,NE,45,6.9,6.9,36,0.00,CLR,,0.04,WeatherDisplay:10.37,2013-02-24 19:58:00,
2013-02-24 15:03:00,63.1,34.3,29.55,NE,45,8.1,8.1,34,0.00,CLR,,0.04,WeatherDisplay:10.37,2013-02-24 20:03:00,
2013-02-24 15:08:00,62.8,33.2,29.55,North,2,10.4,10.4,33,0.00,CLR,,0.04,WeatherDisplay:10.37,2013-02-24 20:08:00,
2013-02-24 15:13:00,62.4,32.1,29.55,North,0,6.9,6.9,32,0.00,CLR,,0.04,WeatherDisplay:10.37,2013-02-24 20:13:00,
2013-02-24 15:18:00,62.2,32.8,29.55,ENE,68,12.7,12.7,33,0.00,CLR,,0.04,WeatherDisplay:10.37,2013-02-24 20:18:00,
2013-02-24 15:23:00,62.8,35.4,29.55,North,0,8.1,0.0,36,0.00,CLR,,0.04,WeatherDisplay:10.37,2013-02-24 20:23:00,
2013-02-24 15:28:00,63.1,34.3,29.55,East,90,5.8,6.9,34,0.00,CLR,,0.04,WeatherDisplay:10.37,2013-02-24 20:28:00,
2013-02-24 15:33:00,62.8,34.7,29.55,NE,45,11.5,11.5,35,0.00,CLR,,0.04,WeatherDisplay:10.37,2013-02-24 20:33:00,
2013-02-24 15:38:00,62.8,33.2,29.55,SE,135,10.4,10.4,33,0.00,CLR,,0.04,WeatherDisplay:10.37,2013-02-24 20:38:00,
2013-02-24 15:43:00,62.6,33.1,29.55,NE,45,5.8,5.8,33,0.00,CLR,,0.04,WeatherDisplay:10.37,2013-02-24 20:43:00,
2013-02-24 15:48:00,63.0,35.6,29.55,SE,135,8.1,8.1,36,0.00,CLR,,0.04,WeatherDisplay:10.37,2013-02-24 20:48:00,
2013-02-24 15:53:00,63.1,35.0,29.55,ENE,68,8.1,8.1,35,0.00,CLR,,0.04,WeatherDisplay:10.37,2013-02-24 20:53:00,
2013-02-24 15:58:00,62.8,34.7,29.55,East,90,8.1,8.1,35,0.00,CLR,,0.04,WeatherDisplay:10.37,2013-02-24 20:58:00,
2013-02-24 16:03:00,62.8,36.8,29.55,SE,135,5.8,5.8,38,0.00,CLR,,0.04,WeatherDisplay:10.37,2013-02-24 21:03:00,
2013-02-24 16:08:00,62.8,36.1,29.55,NE,45,5.8,5.8,37,0.00,CLR,,0.04,WeatherDisplay:10.37,2013-02-24 21:08:00,
2013-02-24 16:13:00,62.8,36.1,29.56,SW,225,10.4,10.4,37,0.00,CLR,,0.04,WeatherDisplay:10.37,2013-02-24 21:13:00,
2013-02-24 16:18:00,62.8,36.8,29.56,NE,45,6.9,6.9,38,0.00,CLR,,0.04,WeatherDisplay:10.37,2013-02-24 21:18:00,
2013-02-24 16:23:00,62.6,35.3,29.56,South,180,5.4,5.4,36,0.00,CLR,,0.04,WeatherDisplay:10.37,2013-02-24 21:23:00,
2013-02-24 16:28:00,62.6,35.9,29.56,NE,45,8.1,8.1,37,0.00,CLR,,0.04,WeatherDisplay:10.37,2013-02-24 21:28:00,
2013-02-24 16:33:00,62.2,35.6,29.56,South,180,8.1,8.1,37,0.00,CLR,,0.04,WeatherDisplay:10.37,2013-02-24 21:33:00,
2013-02-24 16:38:00,62.2,34.9,29.56,East,90,5.8,5.8,36,0.00,CLR,,0.04,WeatherDisplay:10.37,2013-02-24 21:38:00,
2013-02-24 16:43:00,62.4,35.1,29.57,NE,45,5.8,5.8,36,0.00,CLR,,0.04,WeatherDisplay:10.37,2013-02-24 21:43:00,
2013-02-24 16:48:00,62.2,34.2,29.56,East,90,5.8,7.6,35,0.00,CLR,,0.04,WeatherDisplay:10.37,2013-02-24 21:48:00,
2013-02-24 16:53:00,62.2,34.9,29.57,NE,45,2.3,3.8,36,0.00,CLR,,0.04,WeatherDisplay:10.37,2013-02-24 21:53:00,
2013-02-24 16:58:00,62.1,34.8,29.57,South,180,8.1,8.1,36,0.00,CLR,,0.04,WeatherDisplay:10.37,2013-02-24 21:58:00,
2013-02-24 17:03:00,61.9,34.6,29.57,East,90,5.8,5.8,36,0.00,CLR,,0.04,WeatherDisplay:10.37,2013-02-24 22:03:00,
2013-02-24 17:08:00,61.7,33.7,29.57,NE,45,5.8,5.8,35,0.00,CLR,,0.04,WeatherDisplay:10.37,2013-02-24 22:08:00,
2013-02-24 17:13:00,61.5,32.9,29.57,North,0,8.1,8.1,34,0.00,CLR,,0.04,WeatherDisplay:10.37,2013-02-24 22:13:00,
2013-02-24 17:18:00,61.5,34.3,29.57,SW,225,3.5,3.5,36,0.00,CLR,,0.04,WeatherDisplay:10.37,2013-02-24 22:18:00,
2013-02-24 17:23:00,61.3,34.1,29.57,NE,45,6.9,6.9,36,0.00,CLR,,0.04,WeatherDisplay:10.37,2013-02-24 22:23:00,
2013-02-24 17:28:00,61.2,33.3,29.57,East,90,6.9,6.9,35,0.00,CLR,,0.04,WeatherDisplay:10.37,2013-02-24 22:28:00,
2013-02-24 17:33:00,61.0,33.1,29.57,NE,45,5.8,5.8,35,0.00,CLR,,0.04,WeatherDisplay:10.37,2013-02-24 22:33:00,
2013-02-24 17:38:00,60.6,34.2,29.58,East,90,5.8,5.8,37,0.00,CLR,,0.04,WeatherDisplay:10.37,2013-02-24 22:38:00,
2013-02-24 17:43:00,60.4,34.0,29.58,NE,45,3.5,3.5,37,0.00,CLR,,0.04,WeatherDisplay:10.37,2013-02-24 22:43:00,
2013-02-24 17:48:00,60.1,33.7,29.58,North,0,4.6,4.6,37,0.00,CLR,,0.04,WeatherDisplay:10.37,2013-02-24 22:48:00,
2013-02-24 17:53:00,59.5,34.5,29.58,NE,45,1.2,1.6,39,0.00,CLR,,0.04,WeatherDisplay:10.37,2013-02-24 22:53:00,
2013-02-24 17:58:00,59.0,34.7,29.58,NE,45,3.5,3.5,40,0.00,CLR,,0.04,WeatherDisplay:10.37,2013-02-24 22:58:00,
2013-02-24 18:03:00,58.6,35.0,29.59,NE,45,2.3,0.0,41,0.00,CLR,,0.04,WeatherDisplay:10.37,2013-02-24 23:03:00,
2013-02-24 18:08:00,58.1,35.7,29.59,NE,45,1.2,1.2,43,0.00,CLR,,0.04,WeatherDisplay:10.37,2013-02-24 23:08:00,
2013-02-24 18:13:00,57.2,35.5,29.59,NE,45,1.2,0.0,44,0.00,CLR,,0.04,WeatherDisplay:10.37,2013-02-24 23:13:00,
2013-02-24 18:18:00,55.9,36.0,29.59,NE,45,1.2,0.0,47,0.00,CLR,,0.04,WeatherDisplay:10.37,2013-02-24 23:18:00,
2013-02-24 18:23:00,55.0,36.2,29.59,SE,135,2.3,0.0,49,0.00,CLR,,0.04,WeatherDisplay:10.37,2013-02-24 23:23:00,
2013-02-24 18:28:00,54.7,35.4,29.59,East,90,3.5,0.0,48,0.00,CLR,,0.04,WeatherDisplay:10.37,2013-02-24 23:28:00,
2013-02-24 18:33:00,55.0,34.6,29.60,NE,45,2.3,2.3,46,0.00,CLR,,0.04,WeatherDisplay:10.37,2013-02-24 23:33:00,
2013-02-24 18:38:00,54.9,35.0,29.60,NE,45,2.3,2.3,47,0.00,CLR,,0.04,WeatherDisplay:10.37,2013-02-24 23:38:00,
2013-02-24 18:43:00,54.5,35.2,29.61,NE,45,0.0,0.0,48,0.00,CLR,,0.04,WeatherDisplay:10.37,2013-02-24 23:43:00,
2013-02-24 18:48:00,53.6,34.9,29.61,NE,45,0.0,0.0,49,0.00,CLR,,0.04,WeatherDisplay:10.37,2013-02-24 23:48:00,
2013-02-24 18:53:00,52.7,36.0,29.61,NE,45,0.0,0.0,53,0.00,CLR,,0.04,WeatherDisplay:10.37,2013-02-24 23:53:00,
2013-02-24 18:58:00,51.8,35.7,29.61,NE,45,1.2,0.0,54,0.00,CLR,,0.04,WeatherDisplay:10.37,2013-02-24 23:58:00,
2013-02-24 19:03:00,51.3,36.5,29.61,NE,45,1.2,0.0,57,0.00,CLR,,0.04,WeatherDisplay:10.37,2013-02-25 00:03:00,
2013-02-24 19:08:00,50.7,36.5,29.62,NE,45,0.0,0.0,58,0.00,CLR,,0.04,WeatherDisplay:10.37,2013-02-25 00:08:00,
2013-02-24 19:13:00,50.2,36.4,29.61,NE,45,0.0,0.0,59,0.00,CLR,,0.04,WeatherDisplay:10.37,2013-02-25 00:13:00,
2013-02-24 19:18:00,49.5,36.1,29.62,NE,45,1.2,1.2,60,0.00,CLR,,0.04,WeatherDisplay:10.37,2013-02-25 00:18:00,
2013-02-24 19:23:00,49.3,37.2,29.62,NE,45,1.2,1.2,63,0.00,CLR,,0.04,WeatherDisplay:10.37,2013-02-25 00:23:00,
2013-02-24 19:28:00,48.7,36.7,29.62,NE,45,1.2,1.2,63,0.00,CLR,,0.04,WeatherDisplay:10.37,2013-02-25 00:28:00,
2013-02-24 19:33:00,48.7,37.1,29.62,NE,45,1.2,1.2,64,0.00,CLR,,0.04,WeatherDisplay:10.37,2013-02-25 00:33:00,
2013-02-24 19:38:00,48.6,36.9,29.63,NE,45,1.2,0.0,64,0.00,CLR,,0.04,WeatherDisplay:10.37,2013-02-25 00:38:00,
2013-02-24 19:43:00,48.4,36.8,29.63,NE,45,1.6,0.0,64,0.00,CLR,,0.04,WeatherDisplay:10.37,2013-02-25 00:43:00,
2013-02-24 19:48:00,48.0,36.8,29.64,NE,45,1.2,1.2,65,0.00,CLR,,0.04,WeatherDisplay:10.37,2013-02-25 00:48:00,
2013-02-24 19:53:00,47.5,36.3,29.64,NE,45,1.2,1.2,65,0.00,CLR,,0.04,WeatherDisplay:10.37,2013-02-25 00:53:00,
2013-02-24 19:58:00,47.3,36.5,29.64,NE,45,2.3,2.3,66,0.00,CLR,,0.04,WeatherDisplay:10.37,2013-02-25 00:58:00,
2013-02-24 20:04:00,46.9,36.2,29.65,NE,45,1.2,1.6,66,0.00,CLR,,0.04,WeatherDisplay:10.37,2013-02-25 01:04:00,
2013-02-24 20:09:00,46.6,35.8,29.65,NE,45,1.2,0.0,66,0.00,CLR,,0.04,WeatherDisplay:10.37,2013-02-25 01:09:00,
2013-02-24 20:14:00,46.0,35.7,29.65,SW,225,1.2,0.0,67,0.00,CLR,,0.04,WeatherDisplay:10.37,2013-02-25 01:14:00,
2013-02-24 20:19:00,45.3,35.7,29.65,SW,225,0.0,0.0,69,0.00,CLR,,0.04,WeatherDisplay:10.37,2013-02-25 01:19:00,
2013-02-24 20:24:00,44.8,35.9,29.65,NE,45,1.2,1.2,71,0.00,CLR,,0.04,WeatherDisplay:10.37,2013-02-25 01:24:00,
2013-02-24 20:29:00,44.8,35.6,29.66,SW,225,0.0,0.7,70,0.00,CLR,,0.04,WeatherDisplay:10.37,2013-02-25 01:29:00,
2013-02-24 20:34:00,44.2,35.8,29.66,South,180,0.0,0.0,72,0.00,CLR,,0.04,WeatherDisplay:10.37,2013-02-25 01:34:00,
2013-02-24 20:39:00,43.7,35.6,29.66,South,180,0.0,0.0,73,0.00,CLR,,0.04,WeatherDisplay:10.37,2013-02-25 01:39:00,
2013-02-24 20:44:00,43.3,35.3,29.66,East,90,1.2,0.0,73,0.00,CLR,,0.04,WeatherDisplay:10.37,2013-02-25 01:44:00,
2013-02-24 20:49:00,43.2,35.1,29.66,South,180,1.2,0.0,73,0.00,CLR,,0.04,WeatherDisplay:10.37,2013-02-25 01:49:00,
2013-02-24 20:54:00,43.0,35.3,29.67,South,180,0.0,0.0,74,0.00,CLR,,0.04,WeatherDisplay:10.37,2013-02-25 01:54:00,
2013-02-24 20:59:00,42.6,35.9,29.67,NE,45,2.3,2.3,77,0.00,CLR,,0.04,WeatherDisplay:10.37,2013-02-25 01:59:00,
2013-02-24 21:04:00,42.4,37.0,29.67,NE,45,3.5,3.5,81,0.00,CLR,,0.04,WeatherDisplay:10.37,2013-02-25 02:04:00,
2013-02-24 21:09:00,42.8,36.4,29.67,NE,45,2.3,2.3,78,0.00,CLR,,0.04,WeatherDisplay:10.37,2013-02-25 02:09:00,
2013-02-24 21:14:00,42.6,36.2,29.67,NE,45,0.0,0.0,78,0.00,CLR,,0.04,WeatherDisplay:10.37,2013-02-25 02:14:00,
2013-02-24 21:19:00,42.3,35.6,29.67,South,180,0.0,0.0,77,0.00,CLR,,0.04,WeatherDisplay:10.37,2013-02-25 02:19:00,
2013-02-24 21:24:00,41.9,35.5,29.67,South,180,0.0,0.0,78,0.00,CLR,,0.04,WeatherDisplay:10.37,2013-02-25 02:24:00,
2013-02-24 21:29:00,41.5,35.2,29.67,NE,45,2.3,2.3,78,0.00,CLR,,0.04,WeatherDisplay:10.37,2013-02-25 02:29:00,
2013-02-24 21:34:00,41.9,36.2,29.67,NE,45,3.5,3.5,80,0.00,CLR,,0.04,WeatherDisplay:10.37,2013-02-25 02:34:00,
2013-02-24 21:39:00,42.1,36.0,29.67,NE,45,2.3,2.3,79,0.00,CLR,,0.04,WeatherDisplay:10.37,2013-02-25 02:39:00,
2013-02-24 21:44:00,42.3,35.9,29.67,North,0,1.2,0.0,78,0.00,CLR,,0.04,WeatherDisplay:10.37,2013-02-25 02:44:00,
2013-02-24 21:49:00,41.9,35.2,29.67,West,270,1.2,0.0,77,0.00,CLR,,0.04,WeatherDisplay:10.37,2013-02-25 02:49:00,
2013-02-24 21:54:00,41.2,35.2,29.67,NE,45,3.5,3.5,79,0.00,CLR,,0.04,WeatherDisplay:10.37,2013-02-25 02:54:00,
2013-02-24 21:59:00,41.0,35.6,29.67,NE,45,1.2,0.0,81,0.00,CLR,,0.04,WeatherDisplay:10.37,2013-02-25 02:59:00,
2013-02-24 22:04:00,40.8,35.7,29.67,East,90,0.0,0.0,82,0.00,CLR,,0.04,WeatherDisplay:10.37,2013-02-25 03:04:00,
2013-02-24 22:09:00,40.5,35.4,29.67,NW,315,3.5,3.5,82,0.00,CLR,,0.04,WeatherDisplay:10.37,2013-02-25 03:09:00,
2013-02-24 22:14:00,41.4,35.3,29.67,NE,45,4.6,4.6,79,0.00,CLR,,0.04,WeatherDisplay:10.37,2013-02-25 03:14:00,
2013-02-24 22:19:00,43.9,34.0,29.67,WNW,292,3.5,3.5,68,0.00,CLR,,0.04,WeatherDisplay:10.37,2013-02-25 03:19:00,
2013-02-24 22:24:00,44.8,33.3,29.68,North,0,2.3,2.3,64,0.00,CLR,,0.04,WeatherDisplay:10.37,2013-02-25 03:24:00,
2013-02-24 22:29:00,45.1,32.5,29.68,East,90,3.5,3.5,61,0.00,CLR,,0.04,WeatherDisplay:10.37,2013-02-25 03:29:00,
2013-02-24 22:34:00,45.1,32.5,29.68,NE,45,1.2,1.2,61,0.00,CLR,,0.04,WeatherDisplay:10.37,2013-02-25 03:34:00,
2013-02-24 22:39:00,45.5,31.1,29.68,NE,45,3.5,3.5,57,0.00,CLR,,0.04,WeatherDisplay:10.37,2013-02-25 03:39:00,
2013-02-24 22:44:00,45.5,30.7,29.68,East,90,3.5,3.5,56,0.00,CLR,,0.04,WeatherDisplay:10.37,2013-02-25 03:44:00,
2013-02-24 22:49:00,46.0,30.8,29.69,North,0,2.3,0.0,55,0.00,CLR,,0.04,WeatherDisplay:10.37,2013-02-25 03:49:00,
2013-02-24 22:54:00,45.9,30.6,29.69,NE,45,3.5,3.5,55,0.00,CLR,,0.04,WeatherDisplay:10.37,2013-02-25 03:54:00,
2013-02-24 22:59:00,45.3,31.0,29.69,NE,45,1.2,1.2,57,0.00,CLR,,0.04,WeatherDisplay:10.37,2013-02-25 03:59:00,
2013-02-24 23:04:00,45.3,31.4,29.68,NE,45,1.2,1.2,58,0.00,CLR,,0.04,WeatherDisplay:10.37,2013-02-25 04:04:00,
2013-02-24 23:09:00,44.8,30.5,29.69,NE,45,3.5,3.5,57,0.00,CLR,,0.04,WeatherDisplay:10.37,2013-02-25 04:09:00,
2013-02-24 23:14:00,45.1,29.9,29.69,North,0,3.1,3.1,55,0.00,CLR,,0.04,WeatherDisplay:10.37,2013-02-25 04:14:00,
2013-02-24 23:19:00,45.1,29.9,29.69,NE,45,3.5,3.5,55,0.00,CLR,,0.04,WeatherDisplay:10.37,2013-02-25 04:19:00,
2013-02-24 23:24:00,44.8,30.5,29.69,NE,45,2.3,2.3,57,0.00,CLR,,0.04,WeatherDisplay:10.37,2013-02-25 04:24:00,
2013-02-24 23:29:00,44.4,31.0,29.69,NE,45,2.3,2.3,59,0.00,CLR,,0.04,WeatherDisplay:10.37,2013-02-25 04:29:00,
2013-02-24 23:34:00,44.2,30.4,29.70,NE,45,3.5,3.5,58,0.00,CLR,,0.04,WeatherDisplay:10.37,2013-02-25 04:34:00,
2013-02-24 23:39:00,44.2,30.4,29.70,NE,45,2.3,2.3,58,0.00,CLR,,0.04,WeatherDisplay:10.37,2013-02-25 04:39:00,
2013-02-24 23:44:00,43.5,31.4,29.70,NE,45,1.2,0.0,62,0.00,CLR,,0.04,WeatherDisplay:10.37,2013-02-25 04:44:00,
2013-02-24 23:49:00,43.0,30.8,29.70,NE,45,1.2,0.0,62,0.00,CLR,,0.04,WeatherDisplay:10.37,2013-02-25 04:49:00,
2013-02-24 23:54:00,42.6,30.5,29.70,NE,45,1.2,0.0,62,0.00,CLR,,0.04,WeatherDisplay:10.37,2013-02-25 04:54:00,
2013-02-24 23:59:00,41.9,30.6,29.70,NE,45,2.3,2.3,64,0.00,CLR,,0.04,WeatherDisplay:10.37,2013-02-25 04:59:00,